sensor_id;sensor_type;location;lat;lon;timestamp;pressure;altitude;pressure_sealevel;temperature;humidity
22930;BME280;11630;42.660;23.292;2022-08-19T00:02:24;70124.09;;;23.39;89.72
22930;BME280;11630;42.660;23.292;2022-08-19T00:04:55;70112.59;;;23.24;89.02
22930;BME280;11630;42.660;23.292;2022-08-19T00:07:26;70105.72;;;23.19;88.43
22930;BME280;11630;42.660;23.292;2022-08-19T00:09:57;70117.52;;;23.30;87.84
22930;BME280;11630;42.660;23.292;2022-08-19T00:12:28;70111.75;;;23.24;87.79
22930;BME280;11630;42.660;23.292;2022-08-19T00:15:00;70114.27;;;23.23;89.32
22930;BME280;11630;42.660;23.292;2022-08-19T00:17:31;70095.48;;;23.16;90.17
22930;BME280;11630;42.660;23.292;2022-08-19T00:20:01;70093.33;;;23.09;89.96
22930;BME280;11630;42.660;23.292;2022-08-19T00:22:32;70092.82;;;23.03;90.03
22930;BME280;11630;42.660;23.292;2022-08-19T00:25:04;70077.08;;;22.95;91.44
22930;BME280;11630;42.660;23.292;2022-08-19T00:27:34;70076.56;;;22.92;93.69
22930;BME280;11630;42.660;23.292;2022-08-19T00:30:08;70080.07;;;23.02;94.06
22930;BME280;11630;42.660;23.292;2022-08-19T00:32:39;70075.06;;;23.07;93.57
22930;BME280;11630;42.660;23.292;2022-08-19T00:35:10;70093.00;;;23.15;93.55
22930;BME280;11630;42.660;23.292;2022-08-19T00:37:40;70081.14;;;23.08;93.25
22930;BME280;11630;42.660;23.292;2022-08-19T00:40:12;70087.28;;;23.01;92.93
22930;BME280;11630;42.660;23.292;2022-08-19T00:42:43;70082.88;;;22.97;93.34
22930;BME280;11630;42.660;23.292;2022-08-19T00:45:15;70046.61;;;22.64;93.70
22930;BME280;11630;42.660;23.292;2022-08-19T00:47:48;70047.73;;;22.60;94.29
22930;BME280;11630;42.660;23.292;2022-08-19T00:50:20;70028.07;;;22.61;95.24
22930;BME280;11630;42.660;23.292;2022-08-19T00:52:52;70049.05;;;22.70;95.44
22930;BME280;11630;42.660;23.292;2022-08-19T00:55:25;70061.17;;;22.76;95.64
22930;BME280;11630;42.660;23.292;2022-08-19T00:58:00;70067.80;;;22.82;94.96
22930;BME280;11630;42.660;23.292;2022-08-19T01:00:30;70062.53;;;22.78;94.73
22930;BME280;11630;42.660;23.292;2022-08-19T01:05:29;70050.77;;;22.64;95.25
22930;BME280;11630;42.660;23.292;2022-08-19T01:08:02;70033.99;;;22.50;96.31
22930;BME280;11630;42.660;23.292;2022-08-19T01:10:39;70002.59;;;22.32;94.66
22930;BME280;11630;42.660;23.292;2022-08-19T01:13:09;70019.33;;;22.48;95.89
22930;BME280;11630;42.660;23.292;2022-08-19T01:15:48;70024.78;;;22.58;96.69
22930;BME280;11630;42.660;23.292;2022-08-19T01:18:18;70006.97;;;22.36;97.49
22930;BME280;11630;42.660;23.292;2022-08-19T01:20:50;70009.72;;;22.38;97.78
22930;BME280;11630;42.660;23.292;2022-08-19T01:23:21;70021.81;;;22.49;97.78
22930;BME280;11630;42.660;23.292;2022-08-19T01:25:53;70026.77;;;22.53;97.54
22930;BME280;11630;42.660;23.292;2022-08-19T01:28:26;70005.28;;;22.39;97.75
22930;BME280;11630;42.660;23.292;2022-08-19T01:30:57;70028.45;;;22.50;97.73
22930;BME280;11630;42.660;23.292;2022-08-19T01:33:28;70034.79;;;22.54;97.68
22930;BME280;11630;42.660;23.292;2022-08-19T01:36:12;70013.53;;;22.47;97.78
22930;BME280;11630;42.660;23.292;2022-08-19T01:38:41;70024.30;;;22.50;97.84
22930;BME280;11630;42.660;23.292;2022-08-19T01:41:12;70013.79;;;22.48;98.55
22930;BME280;11630;42.660;23.292;2022-08-19T01:43:43;70038.33;;;22.61;97.34
22930;BME280;11630;42.660;23.292;2022-08-19T01:46:14;70026.79;;;22.51;97.82
22930;BME280;11630;42.660;23.292;2022-08-19T01:48:46;70002.80;;;22.38;98.52
22930;BME280;11630;42.660;23.292;2022-08-19T01:51:15;70000.41;;;22.25;99.13
22930;BME280;11630;42.660;23.292;2022-08-19T01:53:47;69986.65;;;22.15;100.00
22930;BME280;11630;42.660;23.292;2022-08-19T01:56:19;70001.48;;;22.28;99.85
22930;BME280;11630;42.660;23.292;2022-08-19T01:58:53;69982.50;;;22.15;99.11
22930;BME280;11630;42.660;23.292;2022-08-19T02:01:23;69950.88;;;21.90;99.71
22930;BME280;11630;42.660;23.292;2022-08-19T02:03:53;69951.75;;;21.87;100.00
22930;BME280;11630;42.660;23.292;2022-08-19T02:06:24;69945.95;;;21.85;100.00
22930;BME280;11630;42.660;23.292;2022-08-19T02:08:54;69966.79;;;22.07;100.00
22930;BME280;11630;42.660;23.292;2022-08-19T02:11:27;69966.79;;;22.07;100.00
22930;BME280;11630;42.660;23.292;2022-08-19T02:13:59;69980.04;;;22.11;100.00
22930;BME280;11630;42.660;23.292;2022-08-19T02:16:30;69994.92;;;22.17;100.00
22930;BME280;11630;42.660;23.292;2022-08-19T02:18:59;69994.34;;;22.22;100.00
22930;BME280;11630;42.660;23.292;2022-08-19T02:21:30;69988.05;;;22.12;100.00
22930;BME280;11630;42.660;23.292;2022-08-19T02:24:01;69982.88;;;22.04;100.00
22930;BME280;11630;42.660;23.292;2022-08-19T02:26:33;69944.88;;;21.82;100.00
22930;BME280;11630;42.660;23.292;2022-08-19T02:29:04;69944.88;;;21.82;100.00
22930;BME280;11630;42.660;23.292;2022-08-19T02:31:34;69941.88;;;21.75;100.00
22930;BME280;11630;42.660;23.292;2022-08-19T02:34:04;69971.63;;;21.92;100.00
22930;BME280;11630;42.660;23.292;2022-08-19T02:36:35;69958.56;;;21.99;100.00
22930;BME280;11630;42.660;23.292;2022-08-19T02:39:05;69958.56;;;21.99;100.00
22930;BME280;11630;42.660;23.292;2022-08-19T02:41:36;69959.78;;;21.85;100.00
22930;BME280;11630;42.660;23.292;2022-08-19T02:44:06;69966.89;;;21.94;100.00
22930;BME280;11630;42.660;23.292;2022-08-19T02:46:37;69970.29;;;21.85;100.00
22930;BME280;11630;42.660;23.292;2022-08-19T02:49:09;69953.97;;;21.84;100.00
22930;BME280;11630;42.660;23.292;2022-08-19T02:51:42;69953.16;;;21.84;100.00
22930;BME280;11630;42.660;23.292;2022-08-19T02:54:14;69939.34;;;21.82;100.00
22930;BME280;11630;42.660;23.292;2022-08-19T02:56:45;69939.34;;;21.82;100.00
22930;BME280;11630;42.660;23.292;2022-08-19T02:59:16;69958.08;;;21.91;100.00
22930;BME280;11630;42.660;23.292;2022-08-19T03:01:47;69926.45;;;21.67;100.00
22930;BME280;11630;42.660;23.292;2022-08-19T03:04:17;69943.88;;;21.68;100.00
22930;BME280;11630;42.660;23.292;2022-08-19T03:06:51;69871.27;;;21.18;100.00
22930;BME280;11630;42.660;23.292;2022-08-19T03:09:22;69876.75;;;21.23;100.00
22930;BME280;11630;42.660;23.292;2022-08-19T03:11:53;69879.23;;;21.24;100.00
22930;BME280;11630;42.660;23.292;2022-08-19T03:14:24;69902.61;;;21.39;100.00
22930;BME280;11630;42.660;23.292;2022-08-19T03:16:55;69892.39;;;21.36;100.00
22930;BME280;11630;42.660;23.292;2022-08-19T03:19:29;69898.74;;;21.38;100.00
22930;BME280;11630;42.660;23.292;2022-08-19T03:21:59;69895.93;;;21.43;100.00
22930;BME280;11630;42.660;23.292;2022-08-19T03:24:31;69917.13;;;21.53;100.00
22930;BME280;11630;42.660;23.292;2022-08-19T03:27:01;69917.13;;;21.53;100.00
22930;BME280;11630;42.660;23.292;2022-08-19T03:29:33;69897.92;;;21.36;100.00
22930;BME280;11630;42.660;23.292;2022-08-19T03:32:05;69895.53;;;21.25;100.00
22930;BME280;11630;42.660;23.292;2022-08-19T03:34:37;69877.89;;;21.16;100.00
22930;BME280;11630;42.660;23.292;2022-08-19T03:37:10;69886.67;;;21.27;100.00
22930;BME280;11630;42.660;23.292;2022-08-19T03:39:43;69894.38;;;21.29;100.00
22930;BME280;11630;42.660;23.292;2022-08-19T03:42:13;69887.48;;;21.29;100.00
22930;BME280;11630;42.660;23.292;2022-08-19T03:44:48;69894.36;;;21.34;100.00
22930;BME280;11630;42.660;23.292;2022-08-19T03:47:14;69894.90;;;21.34;100.00
22930;BME280;11630;42.660;23.292;2022-08-19T03:49:46;69874.56;;;21.18;100.00
22930;BME280;11630;42.660;23.292;2022-08-19T03:52:17;69894.38;;;21.29;100.00
22930;BME280;11630;42.660;23.292;2022-08-19T03:54:48;69880.11;;;21.16;100.00
22930;BME280;11630;42.660;23.292;2022-08-19T03:57:20;69877.89;;;21.19;100.00
22930;BME280;11630;42.660;23.292;2022-08-19T03:59:51;69852.66;;;20.91;100.00
22930;BME280;11630;42.660;23.292;2022-08-19T04:02:21;69880.70;;;21.11;100.00
22930;BME280;11630;42.660;23.292;2022-08-19T04:04:53;69855.13;;;20.97;100.00
22930;BME280;11630;42.660;23.292;2022-08-19T04:07:24;69850.38;;;21.04;100.00
22930;BME280;11630;42.660;23.292;2022-08-19T04:09:54;69887.27;;;21.22;100.00
22930;BME280;11630;42.660;23.292;2022-08-19T04:12:24;69909.22;;;21.42;100.00
22930;BME280;11630;42.660;23.292;2022-08-19T04:14:55;69924.89;;;21.53;100.00
22930;BME280;11630;42.660;23.292;2022-08-19T04:17:27;69928.73;;;21.59;100.00
22930;BME280;11630;42.660;23.292;2022-08-19T04:19:57;69954.25;;;21.85;100.00
22930;BME280;11630;42.660;23.292;2022-08-19T04:22:27;69947.88;;;21.86;100.00
22930;BME280;11630;42.660;23.292;2022-08-19T04:24:58;69947.88;;;21.86;100.00
22930;BME280;11630;42.660;23.292;2022-08-19T04:27:29;69963.27;;;21.97;100.00
22930;BME280;11630;42.660;23.292;2022-08-19T04:30:00;69963.27;;;21.97;100.00
22930;BME280;11630;42.660;23.292;2022-08-19T04:32:33;69977.83;;;22.12;100.00
22930;BME280;11630;42.660;23.292;2022-08-19T04:35:04;69985.55;;;22.14;100.00
22930;BME280;11630;42.660;23.292;2022-08-19T04:37:35;69992.63;;;22.28;100.00
22930;BME280;11630;42.660;23.292;2022-08-19T04:40:09;70021.28;;;22.46;100.00
22930;BME280;11630;42.660;23.292;2022-08-19T04:42:57;70021.28;;;22.46;100.00
22930;BME280;11630;42.660;23.292;2022-08-19T04:45:28;70049.30;;;22.71;99.92
22930;BME280;11630;42.660;23.292;2022-08-19T04:47:59;70072.46;;;22.85;98.46
22930;BME280;11630;42.660;23.292;2022-08-19T04:50:30;70076.81;;;22.94;98.01
22930;BME280;11630;42.660;23.292;2022-08-19T04:53:01;70081.20;;;23.03;97.78
22930;BME280;11630;42.660;23.292;2022-08-19T04:55:31;70091.08;;;23.12;97.34
22930;BME280;11630;42.660;23.292;2022-08-19T04:58:02;70087.56;;;23.00;99.45
22930;BME280;11630;42.660;23.292;2022-08-19T05:00:33;70075.35;;;23.01;99.45
22930;BME280;11630;42.660;23.292;2022-08-19T05:03:03;70099.30;;;23.22;97.98
22930;BME280;11630;42.660;23.292;2022-08-19T05:05:37;70115.12;;;23.20;99.11
22930;BME280;11630;42.660;23.292;2022-08-19T05:08:05;70067.41;;;22.93;96.88
22930;BME280;11630;42.660;23.292;2022-08-19T05:10:39;70084.77;;;23.05;96.56
22930;BME280;11630;42.660;23.292;2022-08-19T05:13:10;70060.59;;;22.80;98.45
22930;BME280;11630;42.660;23.292;2022-08-19T05:15:40;70073.80;;;22.90;97.39
22930;BME280;11630;42.660;23.292;2022-08-19T05:18:11;70076.25;;;22.96;97.58
22930;BME280;11630;42.660;23.292;2022-08-19T05:20:58;70061.73;;;22.76;98.21
22930;BME280;11630;42.660;23.292;2022-08-19T05:23:46;70118.09;;;23.28;96.52
22930;BME280;11630;42.660;23.292;2022-08-19T05:26:17;70157.42;;;23.63;92.74
22930;BME280;11630;42.660;23.292;2022-08-19T05:28:49;70160.70;;;23.68;90.89
22930;BME280;11630;42.660;23.292;2022-08-19T05:31:21;70168.97;;;23.76;90.25
22930;BME280;11630;42.660;23.292;2022-08-19T05:33:52;70187.59;;;24.00;88.31
22930;BME280;11630;42.660;23.292;2022-08-19T05:36:23;70216.84;;;24.19;87.00
22930;BME280;11630;42.660;23.292;2022-08-19T05:38:54;70232.59;;;24.27;86.59
22930;BME280;11630;42.660;23.292;2022-08-19T05:41:25;70198.63;;;24.07;87.90
22930;BME280;11630;42.660;23.292;2022-08-19T05:43:57;70204.50;;;24.04;87.96
22930;BME280;11630;42.660;23.292;2022-08-19T05:46:27;70217.63;;;24.23;87.53
22930;BME280;11630;42.660;23.292;2022-08-19T05:48:57;70278.48;;;24.77;84.05
22930;BME280;11630;42.660;23.292;2022-08-19T05:51:28;70242.73;;;24.40;85.07
22930;BME280;11630;42.660;23.292;2022-08-19T05:54:00;70296.30;;;24.73;83.28
22930;BME280;11630;42.660;23.292;2022-08-19T05:56:31;70304.57;;;25.04;80.98
22930;BME280;11630;42.660;23.292;2022-08-19T05:59:04;70338.70;;;25.38;79.05
22930;BME280;11630;42.660;23.292;2022-08-19T06:01:38;70363.61;;;25.50;77.08
22930;BME280;11630;42.660;23.292;2022-08-19T06:04:09;70342.69;;;25.31;75.84
22930;BME280;11630;42.660;23.292;2022-08-19T06:06:41;70377.63;;;25.64;74.75
22930;BME280;11630;42.660;23.292;2022-08-19T06:09:12;70354.19;;;25.47;73.20
22930;BME280;11630;42.660;23.292;2022-08-19T06:11:45;70397.88;;;25.71;72.39
22930;BME280;11630;42.660;23.292;2022-08-19T06:14:16;70431.05;;;25.93;71.61
22930;BME280;11630;42.660;23.292;2022-08-19T06:16:47;70417.59;;;26.01;71.50
22930;BME280;11630;42.660;23.292;2022-08-19T06:19:20;70454.02;;;26.29;67.00
22930;BME280;11630;42.660;23.292;2022-08-19T06:21:51;70437.16;;;26.18;69.15
22930;BME280;11630;42.660;23.292;2022-08-19T06:24:25;70414.06;;;25.94;70.71
22930;BME280;11630;42.660;23.292;2022-08-19T06:26:59;70461.45;;;26.37;69.36
22930;BME280;11630;42.660;23.292;2022-08-19T06:29:28;70480.18;;;26.56;69.86
22930;BME280;11630;42.660;23.292;2022-08-19T06:31:59;70465.66;;;26.35;72.51
22930;BME280;11630;42.660;23.292;2022-08-19T06:34:32;70472.03;;;26.37;72.20
22930;BME280;11630;42.660;23.292;2022-08-19T06:37:05;70482.55;;;26.43;72.74
22930;BME280;11630;42.660;23.292;2022-08-19T06:39:39;70532.60;;;26.99;69.86
22930;BME280;11630;42.660;23.292;2022-08-19T06:42:11;70546.20;;;27.07;69.06
22930;BME280;11630;42.660;23.292;2022-08-19T06:44:45;70572.49;;;27.43;67.73
22930;BME280;11630;42.660;23.292;2022-08-19T06:47:18;70588.90;;;27.49;65.57
22930;BME280;11630;42.660;23.292;2022-08-19T06:49:47;70537.80;;;27.10;68.27
22930;BME280;11630;42.660;23.292;2022-08-19T06:52:20;70574.20;;;27.42;67.55
22930;BME280;11630;42.660;23.292;2022-08-19T06:54:51;70563.78;;;27.28;65.49
22930;BME280;11630;42.660;23.292;2022-08-19T06:57:23;70554.08;;;27.23;67.11
22930;BME280;11630;42.660;23.292;2022-08-19T06:59:54;70631.80;;;27.79;65.11
22930;BME280;11630;42.660;23.292;2022-08-19T07:02:25;70647.21;;;27.96;62.54
22930;BME280;11630;42.660;23.292;2022-08-19T07:04:56;70644.34;;;28.01;63.77
22930;BME280;11630;42.660;23.292;2022-08-19T07:07:27;70649.52;;;27.90;63.50
22930;BME280;11630;42.660;23.292;2022-08-19T07:09:58;70653.38;;;27.94;65.26
22930;BME280;11630;42.660;23.292;2022-08-19T07:12:31;70621.83;;;27.73;65.03
22930;BME280;11630;42.660;23.292;2022-08-19T07:15:05;70668.73;;;28.15;63.41
22930;BME280;11630;42.660;23.292;2022-08-19T07:17:35;70692.27;;;28.32;62.77
22930;BME280;11630;42.660;23.292;2022-08-19T07:20:08;70721.20;;;28.62;60.86
22930;BME280;11630;42.660;23.292;2022-08-19T07:22:40;70716.64;;;28.49;62.61
22930;BME280;11630;42.660;23.292;2022-08-19T07:25:11;70735.11;;;28.67;61.91
22930;BME280;11630;42.660;23.292;2022-08-19T07:27:42;70764.41;;;28.93;59.81
22930;BME280;11630;42.660;23.292;2022-08-19T07:30:13;70775.17;;;29.04;60.13
22930;BME280;11630;42.660;23.292;2022-08-19T07:32:43;70748.40;;;28.79;62.12
22930;BME280;11630;42.660;23.292;2022-08-19T07:35:14;70751.41;;;28.83;61.77
22930;BME280;11630;42.660;23.292;2022-08-19T07:37:45;70780.98;;;29.08;60.04
22930;BME280;11630;42.660;23.292;2022-08-19T07:40:16;70785.13;;;29.11;60.25
22930;BME280;11630;42.660;23.292;2022-08-19T07:42:47;70833.14;;;29.59;57.29
22930;BME280;11630;42.660;23.292;2022-08-19T07:45:18;70869.40;;;29.88;56.16
22930;BME280;11630;42.660;23.292;2022-08-19T07:47:49;70883.77;;;30.03;54.83
22930;BME280;11630;42.660;23.292;2022-08-19T07:50:21;70916.94;;;30.33;53.69
22930;BME280;11630;42.660;23.292;2022-08-19T07:52:51;70927.97;;;30.43;52.04
22930;BME280;11630;42.660;23.292;2022-08-19T07:55:23;70931.03;;;30.47;51.30
22930;BME280;11630;42.660;23.292;2022-08-19T07:57:53;70960.59;;;30.75;50.38
22930;BME280;11630;42.660;23.292;2022-08-19T08:00:24;70978.63;;;30.87;49.60
22930;BME280;11630;42.660;23.292;2022-08-19T08:02:54;70985.80;;;30.94;50.14
22930;BME280;11630;42.660;23.292;2022-08-19T08:05:25;70993.30;;;30.99;49.84
22930;BME280;11630;42.660;23.292;2022-08-19T08:08:13;70972.33;;;30.78;50.46
22930;BME280;11630;42.660;23.292;2022-08-19T08:11:01;70982.75;;;30.92;49.25
22930;BME280;11630;42.660;23.292;2022-08-19T08:13:33;70989.13;;;30.97;48.15
22930;BME280;11630;42.660;23.292;2022-08-19T08:16:05;71025.15;;;31.26;46.98
22930;BME280;11630;42.660;23.292;2022-08-19T08:18:36;70997.19;;;31.03;46.52
22930;BME280;11630;42.660;23.292;2022-08-19T08:21:07;71049.42;;;31.53;45.06
22930;BME280;11630;42.660;23.292;2022-08-19T08:23:39;71057.29;;;31.69;44.81
22930;BME280;11630;42.660;23.292;2022-08-19T08:26:09;71028.98;;;31.32;46.18
22930;BME280;11630;42.660;23.292;2022-08-19T08:28:40;71086.30;;;31.83;44.50
22930;BME280;11630;42.660;23.292;2022-08-19T08:31:11;71123.90;;;32.19;43.89
22930;BME280;11630;42.660;23.292;2022-08-19T08:33:42;71134.73;;;32.27;42.05
22930;BME280;11630;42.660;23.292;2022-08-19T08:36:13;71132.76;;;32.27;42.45
22930;BME280;11630;42.660;23.292;2022-08-19T08:38:45;71168.22;;;32.59;40.44
22930;BME280;11630;42.660;23.292;2022-08-19T08:44:17;71183.72;;;32.73;37.31
22930;BME280;11630;42.660;23.292;2022-08-19T08:46:50;71118.38;;;32.14;38.78
22930;BME280;11630;42.660;23.292;2022-08-19T08:52:24;71207.27;;;32.92;36.73
22930;BME280;11630;42.660;23.292;2022-08-19T08:54:57;71241.05;;;33.25;37.31
22930;BME280;11630;42.660;23.292;2022-08-19T09:00:25;71333.61;;;34.08;35.81
22930;BME280;11630;42.660;23.292;2022-08-19T09:02:57;71275.45;;;33.54;35.25
22930;BME280;11630;42.660;23.292;2022-08-19T09:05:36;71229.66;;;33.16;35.24
22930;BME280;11630;42.660;23.292;2022-08-19T09:08:16;71246.58;;;33.30;34.05
22930;BME280;11630;42.660;23.292;2022-08-19T09:10:49;71244.43;;;33.40;33.91
22930;BME280;11630;42.660;23.292;2022-08-19T09:13:32;71297.88;;;33.75;33.57
22930;BME280;11630;42.660;23.292;2022-08-19T09:16:10;71333.67;;;34.06;33.84
22930;BME280;11630;42.660;23.292;2022-08-19T09:18:43;71319.73;;;33.96;32.79
22930;BME280;11630;42.660;23.292;2022-08-19T09:21:13;71357.70;;;34.31;32.84
22930;BME280;11630;42.660;23.292;2022-08-19T09:23:45;71373.78;;;34.46;31.99
22930;BME280;11630;42.660;23.292;2022-08-19T09:26:19;71393.45;;;34.64;31.23
22930;BME280;11630;42.660;23.292;2022-08-19T09:28:53;71440.37;;;35.05;29.50
22930;BME280;11630;42.660;23.292;2022-08-19T09:31:26;71427.02;;;34.93;28.63
22930;BME280;11630;42.660;23.292;2022-08-19T09:33:58;71448.62;;;35.15;28.40
22930;BME280;11630;42.660;23.292;2022-08-19T09:36:30;71397.69;;;34.64;28.72
22930;BME280;11630;42.660;23.292;2022-08-19T09:39:02;71393.45;;;34.64;29.67
22930;BME280;11630;42.660;23.292;2022-08-19T09:41:33;71439.80;;;35.05;29.24
22930;BME280;11630;42.660;23.292;2022-08-19T09:44:03;71489.44;;;35.50;29.37
22930;BME280;11630;42.660;23.292;2022-08-19T09:46:35;71487.22;;;35.48;28.78
22930;BME280;11630;42.660;23.292;2022-08-19T09:49:06;71493.92;;;35.52;29.03
22930;BME280;11630;42.660;23.292;2022-08-19T09:51:42;71442.02;;;35.07;29.37
22930;BME280;11630;42.660;23.292;2022-08-19T09:54:11;71500.78;;;35.62;28.37
22930;BME280;11630;42.660;23.292;2022-08-19T09:56:40;71507.74;;;35.67;28.63
22930;BME280;11630;42.660;23.292;2022-08-19T09:59:11;71494.98;;;35.55;27.64
22930;BME280;11630;42.660;23.292;2022-08-19T10:01:43;71481.66;;;35.43;28.04
22930;BME280;11630;42.660;23.292;2022-08-19T10:04:16;71472.48;;;35.36;27.10
22930;BME280;11630;42.660;23.292;2022-08-19T10:06:49;71426.23;;;34.91;27.59
22930;BME280;11630;42.660;23.292;2022-08-19T10:09:20;71515.20;;;35.75;26.91
22930;BME280;11630;42.660;23.292;2022-08-19T10:11:54;71592.69;;;36.43;26.48
22930;BME280;11630;42.660;23.292;2022-08-19T10:14:24;71625.98;;;36.73;25.87
22930;BME280;11630;42.660;23.292;2022-08-19T10:16:55;71574.35;;;36.26;26.69
22930;BME280;11630;42.660;23.292;2022-08-19T10:19:25;71579.11;;;36.29;26.29
22930;BME280;11630;42.660;23.292;2022-08-19T10:22:02;71606.56;;;36.55;26.30
22930;BME280;11630;42.660;23.292;2022-08-19T10:24:31;71637.16;;;36.80;25.34
22930;BME280;11630;42.660;23.292;2022-08-19T10:27:07;71652.42;;;36.95;25.68
22930;BME280;11630;42.660;23.292;2022-08-19T10:29:38;71692.05;;;37.34;24.55
22930;BME280;11630;42.660;23.292;2022-08-19T10:32:09;71737.96;;;37.71;24.45
22930;BME280;11630;42.660;23.292;2022-08-19T10:34:41;71604.40;;;36.51;26.02
22930;BME280;11630;42.660;23.292;2022-08-19T10:37:12;71645.14;;;36.91;25.43
22930;BME280;11630;42.660;23.292;2022-08-19T10:39:43;71704.66;;;37.42;25.01
22930;BME280;11630;42.660;23.292;2022-08-19T10:42:14;71604.36;;;36.53;25.74
22930;BME280;11630;42.660;23.292;2022-08-19T10:44:44;71637.65;;;36.83;25.29
22930;BME280;11630;42.660;23.292;2022-08-19T10:47:14;71627.05;;;36.76;25.65
22930;BME280;11630;42.660;23.292;2022-08-19T10:49:45;71705.14;;;37.45;25.01
22930;BME280;11630;42.660;23.292;2022-08-19T10:52:32;71707.67;;;37.46;24.56
22930;BME280;11630;42.660;23.292;2022-08-19T10:55:04;71724.33;;;37.61;24.31
22930;BME280;11630;42.660;23.292;2022-08-19T10:57:50;71770.16;;;38.03;24.37
22930;BME280;11630;42.660;23.292;2022-08-19T11:00:21;71773.55;;;38.03;24.19
22930;BME280;11630;42.660;23.292;2022-08-19T11:02:53;71712.10;;;37.50;24.54
22930;BME280;11630;42.660;23.292;2022-08-19T11:05:23;71724.02;;;37.62;24.40
22930;BME280;11630;42.660;23.292;2022-08-19T11:07:55;71827.41;;;38.54;23.76
22930;BME280;11630;42.660;23.292;2022-08-19T11:10:25;71874.67;;;38.96;23.91
22930;BME280;11630;42.660;23.292;2022-08-19T11:12:57;71745.14;;;37.80;24.37
22930;BME280;11630;42.660;23.292;2022-08-19T11:15:28;71785.14;;;38.16;23.93
22930;BME280;11630;42.660;23.292;2022-08-19T11:17:58;71784.91;;;38.15;24.21
22930;BME280;11630;42.660;23.292;2022-08-19T11:20:30;71742.13;;;37.76;24.28
22930;BME280;11630;42.660;23.292;2022-08-19T11:23:00;71682.97;;;37.22;25.04
22930;BME280;11630;42.660;23.292;2022-08-19T11:25:32;71722.30;;;37.63;24.92
22930;BME280;11630;42.660;23.292;2022-08-19T11:28:03;71785.97;;;38.18;23.72
22930;BME280;11630;42.660;23.292;2022-08-19T11:30:34;71838.02;;;38.61;24.17
22930;BME280;11630;42.660;23.292;2022-08-19T11:33:06;71836.60;;;38.61;24.01
22930;BME280;11630;42.660;23.292;2022-08-19T11:35:38;71849.67;;;38.74;23.22
22930;BME280;11630;42.660;23.292;2022-08-19T11:38:08;71737.34;;;37.73;24.04
22930;BME280;11630;42.660;23.292;2022-08-19T11:40:39;71814.14;;;38.40;23.94
22930;BME280;11630;42.660;23.292;2022-08-19T11:43:10;71854.91;;;38.80;23.76
22930;BME280;11630;42.660;23.292;2022-08-19T11:45:40;71866.83;;;38.92;23.26
22930;BME280;11630;42.660;23.292;2022-08-19T11:48:11;71900.03;;;39.18;22.96
22930;BME280;11630;42.660;23.292;2022-08-19T11:50:41;71734.34;;;37.70;24.21
22930;BME280;11630;42.660;23.292;2022-08-19T11:53:12;71660.70;;;37.05;24.97
22930;BME280;11630;42.660;23.292;2022-08-19T11:55:43;71682.03;;;37.25;25.02
22930;BME280;11630;42.660;23.292;2022-08-19T11:58:14;71819.88;;;38.49;24.03
22930;BME280;11630;42.660;23.292;2022-08-19T12:00:45;71876.34;;;38.98;23.43
22930;BME280;11630;42.660;23.292;2022-08-19T12:03:16;71877.14;;;39.00;23.32
22930;BME280;11630;42.660;23.292;2022-08-19T12:05:48;71945.33;;;39.59;23.06
22930;BME280;11630;42.660;23.292;2022-08-19T12:08:19;71973.45;;;39.83;22.41
22930;BME280;11630;42.660;23.292;2022-08-19T12:10:49;71972.34;;;39.82;22.24
22930;BME280;11630;42.660;23.292;2022-08-19T12:13:21;71978.66;;;39.92;22.25
22930;BME280;11630;42.660;23.292;2022-08-19T12:15:52;71988.13;;;40.00;22.66
22930;BME280;11630;42.660;23.292;2022-08-19T12:18:23;71887.98;;;39.11;23.50
22930;BME280;11630;42.660;23.292;2022-08-19T12:20:54;71916.14;;;39.32;23.02
22930;BME280;11630;42.660;23.292;2022-08-19T12:23:25;71926.70;;;39.41;22.73
22930;BME280;11630;42.660;23.292;2022-08-19T12:25:56;71966.95;;;39.81;22.29
22930;BME280;11630;42.660;23.292;2022-08-19T12:28:27;71987.86;;;39.99;22.28
22930;BME280;11630;42.660;23.292;2022-08-19T12:30:58;71930.05;;;39.44;22.80
22930;BME280;11630;42.660;23.292;2022-08-19T12:33:29;71857.76;;;38.80;23.19
22930;BME280;11630;42.660;23.292;2022-08-19T12:36:04;71878.56;;;39.00;22.89
22930;BME280;11630;42.660;23.292;2022-08-19T12:38:35;71831.86;;;38.58;23.54
22930;BME280;11630;42.660;23.292;2022-08-19T12:41:11;71868.25;;;38.92;23.56
22930;BME280;11630;42.660;23.292;2022-08-19T12:43:42;71849.10;;;38.73;23.22
22930;BME280;11630;42.660;23.292;2022-08-19T12:46:12;71956.39;;;39.72;22.88
22930;BME280;11630;42.660;23.292;2022-08-19T12:48:43;71927.44;;;39.46;22.66
22930;BME280;11630;42.660;23.292;2022-08-19T12:51:17;71879.18;;;38.98;23.28
22930;BME280;11630;42.660;23.292;2022-08-19T12:53:47;71834.94;;;38.59;23.03
22930;BME280;11630;42.660;23.292;2022-08-19T12:56:18;71782.44;;;38.11;23.64
22930;BME280;11630;42.660;23.292;2022-08-19T12:58:49;71763.23;;;37.95;23.73
22930;BME280;11630;42.660;23.292;2022-08-19T13:01:21;71774.35;;;38.05;23.82
22930;BME280;11630;42.660;23.292;2022-08-19T13:03:52;71862.70;;;38.87;23.72
22930;BME280;11630;42.660;23.292;2022-08-19T13:06:23;71916.41;;;39.34;22.78
22930;BME280;11630;42.660;23.292;2022-08-19T13:08:53;71910.36;;;39.26;22.59
22930;BME280;11630;42.660;23.292;2022-08-19T13:11:24;71825.00;;;38.48;23.36
22930;BME280;11630;42.660;23.292;2022-08-19T13:13:54;71789.67;;;38.18;23.84
22930;BME280;11630;42.660;23.292;2022-08-19T13:16:26;71819.31;;;38.48;23.61
22930;BME280;11630;42.660;23.292;2022-08-19T13:18:57;71949.77;;;39.63;22.98
22930;BME280;11630;42.660;23.292;2022-08-19T13:21:28;71936.74;;;39.50;22.29
22930;BME280;11630;42.660;23.292;2022-08-19T13:23:59;71878.56;;;39.00;22.77